< Typhoon 198010 1980 Season Typhoon 198012 >
Typhoon 198011 (MARGE)
General InformationTrack Information on Google MapsDetailed Wind Information || Disaster Info.ResourceGoogle EarthGE AnimationAtom FeedGeoJSON
Detalied Best Track (Time Zone = UTC)
Year Month Day Hour Lat. Long. Pressure (hPa) Wind (kt) Class Image Chart
1980 8 8 00 14.2 158.1 1002 0 2 -- Chart
1980 8 8 06 14.3 157.6 998 35 3 -- Chart
1980 8 8 12 14.4 157.2 996 35 3 -- Chart
1980 8 8 18 14.6 156.7 994 40 3 -- Chart
1980 8 9 00 14.7 156.2 992 40 3 -- Chart
1980 8 9 06 15.5 156.1 992 40 3 -- Chart
1980 8 9 12 16.3 155.8 985 45 3 -- Chart
1980 8 9 18 17.3 155.0 975 50 4 -- Chart
1980 8 10 00 18.5 155.2 970 65 5 -- Chart
1980 8 10 06 20.0 155.1 955 90 5 -- Chart
1980 8 10 12 21.5 155.1 945 90 5 -- Chart
1980 8 10 18 22.7 155.3 945 90 5 -- Chart
1980 8 11 00 24.1 155.5 945 90 5 -- Chart
1980 8 11 06 25.4 155.6 945 90 5 -- Chart
1980 8 11 12 26.7 155.8 945 90 5 -- Chart
1980 8 11 18 27.8 156.0 950 90 5 -- Chart
1980 8 12 00 28.7 156.1 955 85 5 -- Chart
1980 8 12 06 29.3 156.1 960 80 5 -- Chart
1980 8 12 12 30.0 156.1 960 80 5 -- Chart
1980 8 12 18 30.6 156.1 965 70 5 -- Chart
1980 8 13 00 31.1 156.1 975 70 5 -- Chart
1980 8 13 06 31.5 156.1 975 70 5 -- Chart
1980 8 13 12 32.1 156.6 975 65 5 -- Chart
1980 8 13 18 32.8 157.3 975 60 4 -- Chart
1980 8 14 00 32.8 158.1 975 60 4 -- Chart
1980 8 14 06 33.0 159.3 975 60 4 -- Chart
1980 8 14 12 33.2 160.7 975 60 4 -- Chart
1980 8 14 18 33.3 162.0 975 55 4 -- Chart
1980 8 15 00 33.5 163.4 980 45 3 -- Chart
1980 8 15 06 34.5 165.1 980 45 3 -- Chart
1980 8 15 12 35.7 167.2 985 45 3 -- Chart
1980 8 15 18 37.2 169.5 990 45 3 -- Chart
1980 8 16 00 39.0 172.0 990 0 6 -- Chart
1980 8 16 06 40.8 174.2 988 0 6 -- Chart
1980 8 16 12 42.8 177.0 988 0 6 -- Chart
1980 8 16 18 45.2 180.0 988 0 6 -- Chart
Japan Meteorological Agency Best Track Data | Correction Date : 1992-10-21
< Typhoon 198010 1980 Season Typhoon 198012 >

Help